createdAt,value
2023-07-25T00:00:10.717Z,7.00
2023-07-25T00:01:10.762Z,7.30
2023-07-25T00:02:10.726Z,9.50
2023-07-25T00:03:10.691Z,12.00
2023-07-25T00:04:10.693Z,8.60
2023-07-25T00:05:10.666Z,8.60
2023-07-25T00:06:10.625Z,7.70
2023-07-25T00:07:10.630Z,7.10
2023-07-25T00:08:10.600Z,7.20
2023-07-25T00:09:10.602Z,8.50
2023-07-25T00:10:10.576Z,8.00
2023-07-25T00:11:10.594Z,7.10
2023-07-25T00:12:10.554Z,9.20
2023-07-25T00:13:10.544Z,11.30
2023-07-25T00:14:10.533Z,8.30
2023-07-25T00:15:10.548Z,9.90
2023-07-25T00:16:10.530Z,9.10
2023-07-25T00:17:10.491Z,11.20
2023-07-25T00:18:10.459Z,8.40
2023-07-25T00:19:10.488Z,10.20
2023-07-25T00:20:10.451Z,8.10
2023-07-25T00:21:10.463Z,7.40
2023-07-25T00:22:10.411Z,11.00
2023-07-25T00:23:10.505Z,9.30
2023-07-25T00:24:10.433Z,8.10
2023-07-25T00:25:10.391Z,8.90
2023-07-25T00:26:10.369Z,3.70
2023-07-25T00:27:10.374Z,7.60
2023-07-25T00:28:10.339Z,7.60
2023-07-25T00:29:10.449Z,7.00
2023-07-25T00:30:10.310Z,6.70
2023-07-25T00:31:10.358Z,7.40
2023-07-25T00:32:10.380Z,6.40
2023-07-25T00:33:10.535Z,5.90
2023-07-25T00:34:10.283Z,5.20
2023-07-25T00:35:10.261Z,7.80
2023-07-25T00:36:10.256Z,6.00
2023-07-25T00:37:10.216Z,5.90
2023-07-25T00:38:10.221Z,9.30
2023-07-25T00:39:10.238Z,5.60
2023-07-25T00:40:10.192Z,4.80
2023-07-25T00:41:10.766Z,5.80
2023-07-25T00:42:11.257Z,5.90
2023-07-25T00:43:11.922Z,6.90
2023-07-25T00:44:11.252Z,6.90
2023-07-25T00:45:12.092Z,6.00
2023-07-25T00:46:11.582Z,8.30
2023-07-25T00:47:11.814Z,4.90
2023-07-25T00:48:12.323Z,8.70
2023-07-25T00:49:11.761Z,9.40
2023-07-25T00:50:11.420Z,6.70
2023-07-25T00:51:11.861Z,5.10
2023-07-25T00:52:11.065Z,4.90
2023-07-25T00:53:11.376Z,5.40
2023-07-25T00:54:11.900Z,9.00
2023-07-25T00:55:11.780Z,6.20
2023-07-25T00:56:11.445Z,7.50
2023-07-25T00:57:11.774Z,8.70
2023-07-25T00:58:11.034Z,6.00
2023-07-25T00:59:10.958Z,9.40
2023-07-25T01:00:11.737Z,5.60
2023-07-25T01:01:12.343Z,6.70
2023-07-25T01:02:12.141Z,6.10
2023-07-25T01:03:11.297Z,4.90
2023-07-25T01:04:09.849Z,5.60
2023-07-25T01:05:09.851Z,8.50
2023-07-25T01:06:09.860Z,5.60
2023-07-25T01:07:11.581Z,7.90
2023-07-25T01:08:09.801Z,7.90
2023-07-25T01:09:09.789Z,7.30
2023-07-25T01:10:09.815Z,7.40
2023-07-25T01:11:09.788Z,7.90
2023-07-25T01:12:09.769Z,5.90
2023-07-25T01:13:09.762Z,9.00
2023-07-25T01:14:09.717Z,6.10
2023-07-25T01:15:09.727Z,8.40
2023-07-25T01:16:09.742Z,6.90
2023-07-25T01:17:09.693Z,6.30
2023-07-25T01:18:09.680Z,5.20
2023-07-25T01:19:09.663Z,5.30
2023-07-25T01:20:09.815Z,6.40
2023-07-25T01:21:09.642Z,8.70
2023-07-25T01:22:09.633Z,7.30
2023-07-25T01:23:09.602Z,6.80
2023-07-25T01:24:09.618Z,8.30
2023-07-25T01:25:09.598Z,5.40
2023-07-25T01:26:09.576Z,6.70
2023-07-25T01:27:09.556Z,8.00
2023-07-25T01:28:09.565Z,5.40
2023-07-25T01:29:09.539Z,6.20
2023-07-25T01:30:09.522Z,7.30
2023-07-25T01:31:09.505Z,7.80
2023-07-25T01:32:09.501Z,7.70
2023-07-25T01:33:09.486Z,6.30
2023-07-25T01:34:09.510Z,7.10
2023-07-25T01:35:09.468Z,7.40
2023-07-25T01:36:09.460Z,6.60
2023-07-25T01:37:09.445Z,6.60
2023-07-25T01:38:09.442Z,7.50
2023-07-25T01:39:09.444Z,7.30
2023-07-25T01:40:09.393Z,6.40
2023-07-25T01:41:09.418Z,6.60
2023-07-25T01:42:09.369Z,6.20
2023-07-25T01:43:09.366Z,5.90
2023-07-25T01:44:09.354Z,5.20
2023-07-25T01:45:09.327Z,10.30
2023-07-25T01:46:09.326Z,8.30
2023-07-25T01:47:09.296Z,6.40
2023-07-25T01:48:09.296Z,8.40
2023-07-25T01:49:09.260Z,6.90
2023-07-25T01:50:09.291Z,6.70
2023-07-25T01:51:09.243Z,7.10
2023-07-25T01:52:09.253Z,7.80
2023-07-25T01:53:09.239Z,3.70
2023-07-25T01:54:09.218Z,6.60
2023-07-25T01:55:09.185Z,6.00
2023-07-25T01:56:09.303Z,7.40
2023-07-25T01:57:09.204Z,8.60
2023-07-25T01:58:09.173Z,7.00
2023-07-25T01:59:09.149Z,4.50
2023-07-25T02:00:09.128Z,3.60
2023-07-25T02:01:09.220Z,7.10
2023-07-25T02:02:09.137Z,6.20
2023-07-25T02:03:09.133Z,7.10
2023-07-25T02:04:09.083Z,7.70
2023-07-25T02:05:09.075Z,4.80
2023-07-25T02:06:09.073Z,7.10
2023-07-25T02:07:09.044Z,7.90
2023-07-25T02:08:09.033Z,7.20
2023-07-25T02:09:09.008Z,3.70
2023-07-25T02:10:09.018Z,6.10
2023-07-25T02:11:08.994Z,6.60
2023-07-25T02:12:08.970Z,5.20
2023-07-25T02:13:09.212Z,4.30
2023-07-25T02:14:08.958Z,8.70
2023-07-25T02:15:08.952Z,5.90
2023-07-25T02:16:08.946Z,10.00
2023-07-25T02:17:08.992Z,7.50
2023-07-25T02:18:08.913Z,10.20
2023-07-25T02:19:08.892Z,5.70
2023-07-25T02:20:08.904Z,7.10
2023-07-25T02:21:08.850Z,5.50
2023-07-25T02:22:08.854Z,7.70
2023-07-25T02:23:08.913Z,8.30
2023-07-25T02:24:08.826Z,6.40
2023-07-25T02:25:08.837Z,8.00
2023-07-25T02:26:08.802Z,5.10
2023-07-25T02:27:08.785Z,6.40
2023-07-25T02:28:08.857Z,6.00
2023-07-25T02:29:08.756Z,7.00
2023-07-25T02:30:08.767Z,8.80
2023-07-25T02:31:08.783Z,8.30
2023-07-25T02:32:08.708Z,8.50
2023-07-25T02:33:08.718Z,6.00
2023-07-25T02:34:08.715Z,6.30
2023-07-25T02:35:08.700Z,6.60
2023-07-25T02:36:08.666Z,6.10
2023-07-25T02:37:08.875Z,7.00
2023-07-25T02:38:08.656Z,6.80
2023-07-25T02:39:08.625Z,8.60
2023-07-25T02:40:08.611Z,8.30
2023-07-25T02:41:08.641Z,6.00
2023-07-25T02:42:08.594Z,8.60
2023-07-25T02:43:08.589Z,9.90
2023-07-25T02:44:08.612Z,9.40
2023-07-25T02:45:08.543Z,6.10
2023-07-25T02:46:08.592Z,7.00
2023-07-25T02:47:08.519Z,7.80
2023-07-25T02:48:08.510Z,5.70
2023-07-25T02:49:08.564Z,3.60
2023-07-25T02:50:08.487Z,6.40
2023-07-25T02:51:08.487Z,5.60
2023-07-25T02:52:08.453Z,6.40
2023-07-25T02:53:08.444Z,5.70
2023-07-25T02:54:08.431Z,8.20
2023-07-25T02:55:08.448Z,8.10
2023-07-25T02:56:08.407Z,7.40
2023-07-25T02:57:08.403Z,7.40
2023-07-25T02:58:08.375Z,10.10
2023-07-25T02:59:08.357Z,7.90
2023-07-25T03:00:08.381Z,6.40
2023-07-25T03:01:08.365Z,7.90
2023-07-25T03:02:08.421Z,7.60
2023-07-25T03:03:08.336Z,7.60
2023-07-25T03:04:08.300Z,9.40
2023-07-25T03:05:08.287Z,13.20
2023-07-25T03:06:08.286Z,10.00
2023-07-25T03:07:08.284Z,7.40
2023-07-25T03:08:08.242Z,8.60
2023-07-25T03:09:08.215Z,9.10
2023-07-25T03:10:08.220Z,9.90
2023-07-25T03:11:08.228Z,8.30
2023-07-25T03:12:08.201Z,7.20
2023-07-25T03:13:08.170Z,6.40
2023-07-25T03:14:08.169Z,9.00
2023-07-25T03:15:08.143Z,7.30
2023-07-25T03:16:08.212Z,6.10
2023-07-25T03:17:08.145Z,4.80
2023-07-25T03:18:08.162Z,5.40
2023-07-25T03:19:08.103Z,5.00
2023-07-25T03:20:08.114Z,7.10
2023-07-25T03:21:08.113Z,7.80
2023-07-25T03:22:08.076Z,7.70
2023-07-25T03:23:08.164Z,4.90
2023-07-25T03:24:08.039Z,4.50
2023-07-25T03:25:08.057Z,9.30
2023-07-25T03:26:08.018Z,11.80
2023-07-25T03:27:07.994Z,7.60
2023-07-25T03:28:07.986Z,10.60
2023-07-25T03:29:07.961Z,12.40
2023-07-25T03:30:07.975Z,11.20
2023-07-25T03:31:08.051Z,11.50
2023-07-25T03:32:07.935Z,9.60
2023-07-25T03:33:07.937Z,10.00
2023-07-25T03:34:07.928Z,12.10
2023-07-25T03:35:07.887Z,9.50
2023-07-25T03:36:07.875Z,10.50
2023-07-25T03:37:07.869Z,8.90
2023-07-25T03:38:08.095Z,9.10
2023-07-25T03:39:07.859Z,8.70
2023-07-25T03:40:07.830Z,8.10
2023-07-25T03:41:07.810Z,9.40
2023-07-25T03:42:07.818Z,7.70
2023-07-25T03:43:07.781Z,8.80
2023-07-25T03:44:07.780Z,7.30
2023-07-25T03:45:07.754Z,11.20
2023-07-25T03:46:07.800Z,7.90
2023-07-25T03:47:07.738Z,10.40
2023-07-25T03:48:07.749Z,5.50
2023-07-25T03:49:07.743Z,7.30
2023-07-25T03:50:07.675Z,10.30
2023-07-25T03:51:07.663Z,10.50
2023-07-25T03:52:07.675Z,8.00
2023-07-25T03:53:08.033Z,8.10
2023-07-25T03:54:07.637Z,7.60
2023-07-25T03:55:07.630Z,9.00
2023-07-25T03:56:07.642Z,10.80
2023-07-25T03:57:07.596Z,10.60
2023-07-25T03:58:07.614Z,6.00
2023-07-25T03:59:07.595Z,9.20
2023-07-25T04:00:07.679Z,7.70
2023-07-25T04:01:07.571Z,9.80
2023-07-25T04:02:07.585Z,7.10
2023-07-25T04:03:14.957Z,9.30
2023-07-25T04:04:08.609Z,11.80
2023-07-25T04:05:07.713Z,8.50
2023-07-25T04:06:08.641Z,6.80
2023-07-25T04:07:10.123Z,7.00
2023-07-25T04:08:07.462Z,9.90
2023-07-25T04:09:08.934Z,9.00
2023-07-25T04:10:11.816Z,5.50
2023-07-25T04:11:13.648Z,7.50
2023-07-25T04:12:14.045Z,6.10
2023-07-25T04:13:10.409Z,8.00
2023-07-25T04:14:09.851Z,9.40
2023-07-25T04:15:14.383Z,8.10
2023-07-25T04:16:13.149Z,6.90
2023-07-25T04:17:07.343Z,6.40
2023-07-25T04:18:07.325Z,6.20
2023-07-25T04:19:07.318Z,6.40
2023-07-25T04:20:07.322Z,9.00
2023-07-25T04:21:07.322Z,9.20
2023-07-25T04:22:07.286Z,10.40
2023-07-25T04:23:07.259Z,8.00
2023-07-25T04:24:07.261Z,12.10
2023-07-25T04:25:07.247Z,8.00
2023-07-25T04:26:07.244Z,9.30
2023-07-25T04:27:07.206Z,10.10
2023-07-25T04:28:07.199Z,7.30
2023-07-25T04:29:07.372Z,10.20
2023-07-25T04:30:07.181Z,6.20
2023-07-25T04:31:07.158Z,6.10
2023-07-25T04:32:07.140Z,5.40
2023-07-25T04:33:07.135Z,7.00
2023-07-25T04:34:07.145Z,8.80
2023-07-25T04:35:07.116Z,6.40
2023-07-25T04:36:07.221Z,4.90
2023-07-25T04:37:07.083Z,8.80
2023-07-25T04:38:07.090Z,6.20
2023-07-25T04:39:07.066Z,6.70
2023-07-25T04:40:07.059Z,5.90
2023-07-25T04:41:07.021Z,5.50
2023-07-25T04:42:07.027Z,7.90
2023-07-25T04:43:06.998Z,6.40
2023-07-25T04:44:07.237Z,11.20
2023-07-25T04:45:06.985Z,8.10
2023-07-25T04:46:07.044Z,10.00
2023-07-25T04:47:06.952Z,13.90
2023-07-25T04:48:06.977Z,11.80
2023-07-25T04:49:06.990Z,13.10
2023-07-25T04:50:06.909Z,9.90
2023-07-25T04:51:06.900Z,13.10
2023-07-25T04:52:06.891Z,8.70
2023-07-25T04:53:06.882Z,7.60
2023-07-25T04:54:06.858Z,7.90
2023-07-25T04:55:06.834Z,7.80
2023-07-25T04:56:06.830Z,6.90
2023-07-25T04:57:06.865Z,7.70
2023-07-25T04:58:06.821Z,7.30
2023-07-25T04:59:06.792Z,7.90
2023-07-25T05:00:06.769Z,7.50
2023-07-25T05:01:06.848Z,9.40
2023-07-25T05:02:06.763Z,5.60
2023-07-25T05:03:06.875Z,9.40
2023-07-25T05:04:06.747Z,5.10
2023-07-25T05:05:06.708Z,8.10
2023-07-25T05:06:06.704Z,5.00
2023-07-25T05:07:06.712Z,5.20
2023-07-25T05:08:06.687Z,5.10
2023-07-25T05:09:06.803Z,6.70
2023-07-25T05:10:06.642Z,9.50
2023-07-25T05:11:06.660Z,10.30
2023-07-25T05:12:06.646Z,8.50
2023-07-25T05:13:06.599Z,5.80
2023-07-25T05:14:06.672Z,7.00
2023-07-25T05:15:06.583Z,9.90
2023-07-25T05:16:06.719Z,10.40
2023-07-25T05:17:06.561Z,4.70
2023-07-25T05:18:06.591Z,8.60
2023-07-25T05:19:06.531Z,7.20
2023-07-25T05:20:06.542Z,10.40
2023-07-25T05:21:06.542Z,6.10
2023-07-25T05:22:06.505Z,6.60
2023-07-25T05:23:06.488Z,6.00
2023-07-25T05:24:06.474Z,8.50
2023-07-25T05:25:06.498Z,9.70
2023-07-25T05:26:06.435Z,6.60
2023-07-25T05:27:06.421Z,6.70
2023-07-25T05:28:06.410Z,7.90
2023-07-25T05:29:06.515Z,10.50
2023-07-25T05:30:06.400Z,8.50
2023-07-25T05:31:06.386Z,9.20
2023-07-25T05:32:06.360Z,10.80
2023-07-25T05:33:06.383Z,5.10
2023-07-25T05:34:06.339Z,7.90
2023-07-25T05:35:06.339Z,8.80
2023-07-25T05:36:06.340Z,6.80
2023-07-25T05:37:06.310Z,8.20
2023-07-25T05:38:06.285Z,7.10
2023-07-25T05:39:06.292Z,6.60
2023-07-25T05:40:06.263Z,8.80
2023-07-25T05:41:06.257Z,8.10
2023-07-25T05:42:06.245Z,9.20
2023-07-25T05:43:06.223Z,8.60
2023-07-25T05:44:06.218Z,10.60
2023-07-25T05:45:06.193Z,10.60
2023-07-25T05:46:06.352Z,10.10
2023-07-25T05:47:06.173Z,8.70
2023-07-25T05:48:06.177Z,6.70
2023-07-25T05:49:08.318Z,8.50
2023-07-25T05:50:06.113Z,9.10
2023-07-25T05:51:06.133Z,8.00
2023-07-25T05:52:06.082Z,7.10
2023-07-25T05:53:06.232Z,8.50
2023-07-25T05:54:06.071Z,6.70
2023-07-25T05:55:06.058Z,9.00
2023-07-25T05:56:06.037Z,8.30
2023-07-25T05:57:06.034Z,9.90
2023-07-25T05:58:06.174Z,6.60
2023-07-25T05:59:06.013Z,7.00
2023-07-25T06:00:05.979Z,13.20
2023-07-25T06:01:06.001Z,9.70
2023-07-25T06:02:05.966Z,8.70
2023-07-25T06:03:06.095Z,7.70
2023-07-25T06:04:05.932Z,8.20
2023-07-25T06:05:05.918Z,7.80
2023-07-25T06:06:05.903Z,7.50
2023-07-25T06:07:05.910Z,5.80
2023-07-25T06:08:05.887Z,9.10
2023-07-25T06:09:05.875Z,6.20
2023-07-25T06:10:05.932Z,6.20
2023-07-25T06:11:05.843Z,7.00
2023-07-25T06:12:05.835Z,9.50
2023-07-25T06:13:05.880Z,6.80
2023-07-25T06:14:08.269Z,7.00
2023-07-25T06:15:05.932Z,7.10
2023-07-25T06:16:05.788Z,7.30
2023-07-25T06:17:05.845Z,9.30
2023-07-25T06:18:06.024Z,7.80
2023-07-25T06:19:05.734Z,8.80
2023-07-25T06:20:05.715Z,9.80
2023-07-25T06:21:05.746Z,8.00
2023-07-25T06:22:05.703Z,8.10
2023-07-25T06:23:05.716Z,8.30
2023-07-25T06:24:05.666Z,10.80
2023-07-25T06:25:05.674Z,7.90
2023-07-25T06:26:05.646Z,7.00
2023-07-25T06:27:05.743Z,6.60
2023-07-25T06:28:05.608Z,6.00
2023-07-25T06:29:05.633Z,5.60
2023-07-25T06:30:05.600Z,8.50
2023-07-25T06:31:05.673Z,5.10
2023-07-25T06:32:05.635Z,7.50
2023-07-25T06:33:05.600Z,7.60
2023-07-25T06:34:05.631Z,9.10
2023-07-25T06:35:05.540Z,9.50
2023-07-25T06:36:05.524Z,5.80
2023-07-25T06:37:05.518Z,7.00
2023-07-25T06:38:05.480Z,6.90
2023-07-25T06:39:05.623Z,5.20
2023-07-25T06:40:05.520Z,5.40
2023-07-25T06:41:05.485Z,6.10
2023-07-25T06:42:05.461Z,7.10
2023-07-25T06:43:05.428Z,4.80
2023-07-25T06:44:05.453Z,7.60
2023-07-25T06:45:05.427Z,5.70
2023-07-25T06:46:05.386Z,4.80
2023-07-25T06:47:05.437Z,7.20
2023-07-25T06:48:05.444Z,7.50
2023-07-25T06:49:06.076Z,7.80
2023-07-25T06:50:05.321Z,6.40
2023-07-25T06:51:05.536Z,6.70
2023-07-25T06:52:05.307Z,4.00
2023-07-25T06:53:05.308Z,5.10
2023-07-25T06:54:05.362Z,5.40
2023-07-25T06:55:05.293Z,6.50
2023-07-25T06:56:05.265Z,5.70
2023-07-25T06:57:05.233Z,8.50
2023-07-25T06:58:05.238Z,6.20
2023-07-25T06:59:05.352Z,8.20
2023-07-25T07:00:05.202Z,5.20
2023-07-25T07:01:05.196Z,8.00
2023-07-25T07:02:05.194Z,5.40
2023-07-25T07:03:05.276Z,7.90
2023-07-25T07:04:05.148Z,6.60
2023-07-25T07:05:19.300Z,6.90
2023-07-25T07:06:06.141Z,5.80
2023-07-25T07:07:05.102Z,5.50
2023-07-25T07:08:05.118Z,5.00
2023-07-25T07:09:05.076Z,6.60
2023-07-25T07:10:05.074Z,5.30
2023-07-25T07:11:05.158Z,8.00
2023-07-25T07:12:05.064Z,6.00
2023-07-25T07:13:05.011Z,5.90
2023-07-25T07:14:05.005Z,7.10
2023-07-25T07:15:05.029Z,5.40
2023-07-25T07:16:05.329Z,5.70
2023-07-25T07:17:05.007Z,4.40
2023-07-25T07:18:05.003Z,6.00
2023-07-25T07:19:04.970Z,7.30
2023-07-25T07:20:04.942Z,6.20
2023-07-25T07:21:05.198Z,8.00
2023-07-25T07:22:04.919Z,8.00
2023-07-25T07:23:04.888Z,5.70
2023-07-25T07:24:04.897Z,5.60
2023-07-25T07:25:04.901Z,4.50
2023-07-25T07:26:04.872Z,4.70
2023-07-25T07:27:04.840Z,5.10
2023-07-25T07:28:04.816Z,4.70
2023-07-25T07:29:04.824Z,6.00
2023-07-25T07:30:04.807Z,4.80
2023-07-25T07:31:04.960Z,3.50
2023-07-25T07:32:04.781Z,2.50
2023-07-25T07:33:04.779Z,4.60
2023-07-25T07:34:04.787Z,3.40
2023-07-25T07:35:04.758Z,4.00
2023-07-25T07:36:04.739Z,5.30
2023-07-25T07:37:04.748Z,4.40
2023-07-25T07:38:04.749Z,5.20
2023-07-25T07:39:04.697Z,5.20
2023-07-25T07:40:04.700Z,4.70
2023-07-25T07:41:04.671Z,4.50
2023-07-25T07:42:04.638Z,4.50
2023-07-25T07:43:04.630Z,3.50
2023-07-25T07:44:04.631Z,4.30
2023-07-25T07:45:04.618Z,4.10
2023-07-25T07:46:04.653Z,3.60
2023-07-25T07:47:04.601Z,3.90
2023-07-25T07:48:04.634Z,4.80
2023-07-25T07:49:04.566Z,3.80
2023-07-25T07:50:04.563Z,4.30
2023-07-25T07:51:04.521Z,4.40
2023-07-25T07:52:15.611Z,5.60
2023-07-25T07:53:05.508Z,6.10
2023-07-25T07:54:04.503Z,3.20
2023-07-25T07:55:04.497Z,4.80
2023-07-25T07:56:04.458Z,4.50
2023-07-25T07:57:04.508Z,3.50
2023-07-25T07:58:04.480Z,3.70
2023-07-25T07:59:04.469Z,3.70
2023-07-25T08:00:04.415Z,3.20
2023-07-25T08:01:04.430Z,3.80
2023-07-25T08:02:04.447Z,4.50
2023-07-25T08:03:04.495Z,4.60
2023-07-25T08:04:04.368Z,4.50
2023-07-25T08:05:04.401Z,4.30
2023-07-25T08:06:04.322Z,6.00
2023-07-25T08:07:04.332Z,3.80
2023-07-25T08:08:04.347Z,3.20
2023-07-25T08:09:04.288Z,3.50
2023-07-25T08:10:04.282Z,3.70
2023-07-25T08:11:04.294Z,3.20
2023-07-25T08:12:04.286Z,2.90
2023-07-25T08:13:04.272Z,3.00
2023-07-25T08:14:04.228Z,3.80
2023-07-25T08:15:04.218Z,3.60
2023-07-25T08:16:04.279Z,4.90
2023-07-25T08:17:04.207Z,3.60
2023-07-25T08:18:04.197Z,4.00
2023-07-25T08:19:04.184Z,3.70
2023-07-25T08:20:04.200Z,3.00
2023-07-25T08:21:04.136Z,4.20
2023-07-25T08:22:04.138Z,3.80
2023-07-25T08:23:04.116Z,4.50
2023-07-25T08:24:04.119Z,5.00
2023-07-25T08:25:04.083Z,3.60
2023-07-25T08:26:04.109Z,2.90
2023-07-25T08:27:04.074Z,4.30
2023-07-25T08:28:04.047Z,3.10
2023-07-25T08:29:04.068Z,4.80
2023-07-25T08:30:04.074Z,3.20
2023-07-25T08:31:04.038Z,3.10
2023-07-25T08:32:04.007Z,4.40
2023-07-25T08:33:04.037Z,3.40
2023-07-25T08:34:03.976Z,4.90
2023-07-25T08:35:04.036Z,4.60
2023-07-25T08:36:03.958Z,4.60
2023-07-25T08:37:03.938Z,3.60
2023-07-25T08:38:03.929Z,4.00
2023-07-25T08:39:03.937Z,4.50
2023-07-25T08:40:03.907Z,2.90
2023-07-25T08:41:03.907Z,3.60
2023-07-25T08:42:03.861Z,3.80
2023-07-25T08:43:03.916Z,4.00
2023-07-25T08:44:03.831Z,3.40
2023-07-25T08:45:03.858Z,3.80
2023-07-25T08:46:03.822Z,6.20
2023-07-25T08:47:03.852Z,6.50
2023-07-25T08:48:03.959Z,2.90
2023-07-25T08:49:03.841Z,2.60
2023-07-25T08:50:03.780Z,4.30
2023-07-25T08:51:03.785Z,4.90
2023-07-25T08:52:03.767Z,2.70
2023-07-25T08:53:03.724Z,3.70
2023-07-25T08:54:03.741Z,2.10
2023-07-25T08:55:03.716Z,3.20
2023-07-25T08:56:03.675Z,3.90
2023-07-25T08:57:03.782Z,5.10
2023-07-25T08:58:03.655Z,5.10
2023-07-25T08:59:03.670Z,3.30
2023-07-25T09:00:03.650Z,3.20
2023-07-25T09:01:03.620Z,3.70
2023-07-25T09:02:03.750Z,4.20
2023-07-25T09:03:03.674Z,4.00
2023-07-25T09:04:03.602Z,3.50
2023-07-25T09:05:03.605Z,4.20
2023-07-25T09:06:03.562Z,3.70
2023-07-25T09:07:03.543Z,4.80
2023-07-25T09:08:03.531Z,5.30
2023-07-25T09:09:03.500Z,1.90
2023-07-25T09:10:03.531Z,5.50
2023-07-25T09:11:03.483Z,3.80
2023-07-25T09:12:03.477Z,4.10
2023-07-25T09:13:03.525Z,4.20
2023-07-25T09:14:03.465Z,6.20
2023-07-25T09:15:03.453Z,6.10
2023-07-25T09:16:03.474Z,4.20
2023-07-25T09:17:03.468Z,3.50
2023-07-25T09:18:03.452Z,3.80
2023-07-25T09:19:03.381Z,4.60
2023-07-25T09:20:03.372Z,4.30
2023-07-25T09:21:03.361Z,3.50
2023-07-25T09:22:03.365Z,4.20
2023-07-25T09:23:03.329Z,5.60
2023-07-25T09:24:03.313Z,3.50
2023-07-25T09:25:03.314Z,5.00
2023-07-25T09:26:03.331Z,6.10
2023-07-25T09:27:03.308Z,6.00
2023-07-25T09:28:03.296Z,5.30
2023-07-25T09:29:03.261Z,3.50
2023-07-25T09:30:03.363Z,3.30
2023-07-25T09:31:03.264Z,4.60
2023-07-25T09:32:03.348Z,4.00
2023-07-25T09:33:03.244Z,5.20
2023-07-25T09:34:03.193Z,6.90
2023-07-25T09:35:03.169Z,5.50
2023-07-25T09:36:03.193Z,5.30
2023-07-25T09:37:03.146Z,7.50
2023-07-25T09:38:03.301Z,7.00
2023-07-25T09:39:03.113Z,6.60
2023-07-25T09:40:03.137Z,5.80
2023-07-25T09:41:03.108Z,3.80
2023-07-25T09:42:03.095Z,3.60
2023-07-25T09:43:03.064Z,5.00
2023-07-25T09:44:03.084Z,4.70
2023-07-25T09:45:03.057Z,4.20
2023-07-25T09:46:03.044Z,4.30
2023-07-25T09:47:03.016Z,4.80
2023-07-25T09:48:03.086Z,4.40
2023-07-25T09:49:03.000Z,4.90
2023-07-25T09:50:02.984Z,4.90
2023-07-25T09:51:02.957Z,3.20
2023-07-25T09:52:02.952Z,5.00
2023-07-25T09:53:02.942Z,4.50
2023-07-25T09:54:02.957Z,3.60
2023-07-25T09:55:02.928Z,5.50
2023-07-25T09:56:02.908Z,4.90
2023-07-25T09:57:02.881Z,5.00
2023-07-25T09:58:02.880Z,5.40
2023-07-25T09:59:07.227Z,4.90
2023-07-25T10:00:02.846Z,6.20
2023-07-25T10:01:02.888Z,4.90
2023-07-25T10:02:02.835Z,5.10
2023-07-25T10:03:02.841Z,4.00
2023-07-25T10:04:02.830Z,4.90
2023-07-25T10:05:02.782Z,4.60
2023-07-25T10:06:02.986Z,4.90
2023-07-25T10:07:02.762Z,4.50
2023-07-25T10:08:02.749Z,4.30
2023-07-25T10:09:02.746Z,4.60
2023-07-25T10:10:02.731Z,3.60
2023-07-25T10:11:02.721Z,6.20
2023-07-25T10:12:02.812Z,3.70
2023-07-25T10:13:02.686Z,4.80
2023-07-25T10:14:02.680Z,3.80
2023-07-25T10:15:02.667Z,5.60
2023-07-25T10:16:02.664Z,4.70
2023-07-25T10:17:02.670Z,4.60
2023-07-25T10:18:02.632Z,7.30
2023-07-25T10:19:02.601Z,3.80
2023-07-25T10:20:02.586Z,4.00
2023-07-25T10:21:02.565Z,3.10
2023-07-25T10:22:02.605Z,4.70
2023-07-25T10:23:02.539Z,3.80
2023-07-25T10:24:02.573Z,3.60
2023-07-25T10:25:02.527Z,6.00
2023-07-25T10:26:02.623Z,4.40
2023-07-25T10:27:02.545Z,4.60
2023-07-25T10:28:02.559Z,6.00
2023-07-25T10:29:02.483Z,6.30
2023-07-25T10:30:02.507Z,5.00
2023-07-25T10:31:02.481Z,4.50
2023-07-25T10:32:02.441Z,5.10
2023-07-25T10:33:02.481Z,4.90
2023-07-25T10:34:02.415Z,4.70
2023-07-25T10:35:02.392Z,5.10
2023-07-25T10:36:02.397Z,4.40
2023-07-25T10:37:02.355Z,5.70
2023-07-25T10:38:02.780Z,4.80
2023-07-25T10:39:02.338Z,5.20
2023-07-25T10:40:02.370Z,3.20
2023-07-25T10:41:02.319Z,5.10
2023-07-25T10:42:02.290Z,3.80
2023-07-25T10:43:07.191Z,4.50
2023-07-25T10:44:04.056Z,5.00
2023-07-25T10:45:02.274Z,5.20
2023-07-25T10:46:02.450Z,2.90
2023-07-25T10:47:02.297Z,3.40
2023-07-25T10:48:02.439Z,4.60
2023-07-25T10:49:02.225Z,6.00
2023-07-25T10:50:02.946Z,5.70
2023-07-25T10:51:02.199Z,4.40
2023-07-25T10:52:02.186Z,5.30
2023-07-25T10:53:02.148Z,3.90
2023-07-25T10:54:02.323Z,4.40
2023-07-25T10:55:02.165Z,4.00
2023-07-25T10:56:03.630Z,3.50
2023-07-25T10:57:02.106Z,3.00
2023-07-25T10:58:02.170Z,4.80
2023-07-25T10:59:02.094Z,5.30
2023-07-25T11:00:02.152Z,5.00
2023-07-25T11:01:02.085Z,4.80
2023-07-25T11:02:02.693Z,3.90
2023-07-25T11:03:02.099Z,4.20
2023-07-25T11:04:02.074Z,4.40
2023-07-25T11:05:02.005Z,5.60
2023-07-25T11:06:01.992Z,4.60
2023-07-25T11:07:02.000Z,6.60
2023-07-25T11:08:03.228Z,4.50
2023-07-25T11:09:01.976Z,5.20
2023-07-25T11:10:01.968Z,5.90
2023-07-25T11:11:01.928Z,4.70
2023-07-25T11:12:01.924Z,5.10
2023-07-25T11:13:01.939Z,4.90
2023-07-25T11:14:02.686Z,4.40
2023-07-25T11:15:01.886Z,4.10
2023-07-25T11:16:01.869Z,4.30
2023-07-25T11:17:01.886Z,3.80
2023-07-25T11:18:01.905Z,4.10
2023-07-25T11:19:01.867Z,6.30
2023-07-25T11:20:02.950Z,4.40
2023-07-25T11:21:01.800Z,5.50
2023-07-25T11:22:01.788Z,4.20
2023-07-25T11:23:01.790Z,4.60
2023-07-25T11:24:01.774Z,5.30
2023-07-25T11:25:01.746Z,4.40
2023-07-25T11:26:03.080Z,4.60
2023-07-25T11:27:01.725Z,6.40
2023-07-25T11:28:01.697Z,4.60
2023-07-25T11:29:01.709Z,3.40
2023-07-25T11:30:01.680Z,6.30
2023-07-25T11:31:01.726Z,7.00
2023-07-25T11:32:02.670Z,5.10
2023-07-25T11:33:01.656Z,4.30
2023-07-25T11:34:01.726Z,5.30
2023-07-25T11:35:01.614Z,6.10
2023-07-25T11:36:01.624Z,5.30
2023-07-25T11:37:01.608Z,4.40
2023-07-25T11:38:02.726Z,3.70
2023-07-25T11:39:01.564Z,5.40
2023-07-25T11:40:01.755Z,5.00
2023-07-25T11:41:01.555Z,4.70
2023-07-25T11:42:01.524Z,4.90
2023-07-25T11:43:01.506Z,5.50
2023-07-25T11:44:01.499Z,4.70
2023-07-25T11:45:01.504Z,4.60
2023-07-25T11:46:01.532Z,5.00
2023-07-25T11:47:01.458Z,4.40
2023-07-25T11:48:01.488Z,5.40
2023-07-25T11:49:01.417Z,4.80
2023-07-25T11:50:14.571Z,3.90
2023-07-25T11:51:02.410Z,4.40
2023-07-25T11:52:01.444Z,4.60
2023-07-25T11:53:01.375Z,4.20
2023-07-25T11:54:01.568Z,4.00
2023-07-25T11:55:01.370Z,5.70
2023-07-25T11:56:01.475Z,4.60
2023-07-25T11:57:01.343Z,4.90
2023-07-25T11:58:01.321Z,5.70
2023-07-25T11:59:01.319Z,6.70
2023-07-25T12:00:01.357Z,4.50
2023-07-25T12:01:01.272Z,6.80
2023-07-25T12:02:02.480Z,5.30
2023-07-25T12:03:01.310Z,4.30
2023-07-25T12:04:01.300Z,4.40
2023-07-25T12:05:01.246Z,5.90
2023-07-25T12:06:01.346Z,4.80
2023-07-25T12:07:01.204Z,5.40
2023-07-25T12:08:01.223Z,5.50
2023-07-25T12:09:01.179Z,6.30
2023-07-25T12:10:01.160Z,4.70
2023-07-25T12:11:01.152Z,4.30
2023-07-25T12:12:01.203Z,5.80
2023-07-25T12:13:01.145Z,4.10
2023-07-25T12:14:01.132Z,4.10
2023-07-25T12:15:01.107Z,6.60
2023-07-25T12:16:01.174Z,5.10
2023-07-25T12:17:01.109Z,5.70
2023-07-25T12:18:02.994Z,5.50
2023-07-25T12:19:01.053Z,5.10
2023-07-25T12:20:01.021Z,4.50
2023-07-25T12:21:01.016Z,6.20
2023-07-25T12:22:01.203Z,4.60
2023-07-25T12:23:01.032Z,5.80
2023-07-25T12:24:03.293Z,4.30
2023-07-25T12:25:00.958Z,4.70
2023-07-25T12:26:00.977Z,4.70
2023-07-25T12:27:00.945Z,5.50
2023-07-25T12:28:01.053Z,4.70
2023-07-25T12:29:00.904Z,6.00
2023-07-25T12:30:00.892Z,8.00
2023-07-25T12:31:00.860Z,5.70
2023-07-25T12:32:01.011Z,4.70
2023-07-25T12:33:00.919Z,6.10
2023-07-25T12:34:00.847Z,5.60
2023-07-25T12:35:00.813Z,5.70
2023-07-25T12:36:00.830Z,5.30
2023-07-25T12:37:00.837Z,6.40
2023-07-25T12:38:00.890Z,5.10
2023-07-25T12:39:00.794Z,8.10
2023-07-25T12:40:00.776Z,5.40
2023-07-25T12:41:00.779Z,3.80
2023-07-25T12:42:00.801Z,5.80
2023-07-25T12:43:00.724Z,5.80
2023-07-25T12:44:00.775Z,7.50
2023-07-25T12:45:00.695Z,7.10
2023-07-25T12:46:00.747Z,5.40
2023-07-25T12:47:00.659Z,4.90
2023-07-25T12:48:00.822Z,5.80
2023-07-25T12:49:00.658Z,5.00
2023-07-25T12:50:00.662Z,5.70
2023-07-25T12:51:00.635Z,4.80
2023-07-25T12:52:00.699Z,5.70
2023-07-25T12:53:00.579Z,5.90
2023-07-25T12:54:00.579Z,6.20
2023-07-25T12:55:00.574Z,5.70
2023-07-25T12:56:00.731Z,5.70
2023-07-25T12:57:00.531Z,6.40
2023-07-25T12:58:00.518Z,5.60
2023-07-25T12:59:00.502Z,5.50
2023-07-25T13:00:00.592Z,5.20
2023-07-25T13:01:00.475Z,7.60
2023-07-25T13:02:00.519Z,5.60
2023-07-25T13:03:00.618Z,6.40
2023-07-25T13:04:00.640Z,6.20
2023-07-25T13:05:00.426Z,6.20
2023-07-25T13:06:00.417Z,5.60
2023-07-25T13:07:00.490Z,5.70
2023-07-25T13:08:00.419Z,7.60
2023-07-25T13:09:00.384Z,5.60
2023-07-25T13:10:00.387Z,4.90
2023-07-25T13:11:00.352Z,5.50
2023-07-25T13:12:00.346Z,4.20
2023-07-25T13:13:00.332Z,5.00
2023-07-25T13:14:00.325Z,5.80
2023-07-25T13:15:00.306Z,5.60
2023-07-25T13:16:00.325Z,4.70